sensor_id;sensor_type;location;lat;lon;timestamp;temperature;humidity
20833;DHT22;56075;51.264;7.150;2022-11-20T00:01:56;3.30;99.90
20833;DHT22;56075;51.264;7.150;2022-11-20T00:17:04;3.40;99.90
20833;DHT22;56075;51.264;7.150;2022-11-20T02:11:55;3.70;99.90
20833;DHT22;56075;51.264;7.150;2022-11-20T02:57:43;3.40;99.90
20833;DHT22;56075;51.264;7.150;2022-11-20T03:00:14;3.30;99.90
20833;DHT22;56075;51.264;7.150;2022-11-20T04:18:54;3.70;99.90
20833;DHT22;56075;51.264;7.150;2022-11-20T04:21:26;3.80;99.90
20833;DHT22;56075;51.264;7.150;2022-11-20T05:04:26;3.80;99.90
20833;DHT22;56075;51.264;7.150;2022-11-20T05:32:12;3.60;99.90
20833;DHT22;56075;51.264;7.150;2022-11-20T05:37:14;3.40;99.90
20833;DHT22;56075;51.264;7.150;2022-11-20T05:42:17;3.60;99.90
20833;DHT22;56075;51.264;7.150;2022-11-20T05:47:36;3.70;99.90
20833;DHT22;56075;51.264;7.150;2022-11-20T06:10:20;3.50;99.90
20833;DHT22;56075;51.264;7.150;2022-11-20T06:22:57;3.30;99.90
20833;DHT22;56075;51.264;7.150;2022-11-20T06:27:59;3.30;99.90
20833;DHT22;56075;51.264;7.150;2022-11-20T07:43:54;3.60;99.90
20833;DHT22;56075;51.264;7.150;2022-11-20T08:34:46;3.60;99.90
20833;DHT22;56075;51.264;7.150;2022-11-20T08:57:34;4.10;99.90
20833;DHT22;56075;51.264;7.150;2022-11-20T09:05:08;4.00;99.90
20833;DHT22;56075;51.264;7.150;2022-11-20T09:07:39;4.10;99.90
20833;DHT22;56075;51.264;7.150;2022-11-20T09:10:11;4.00;99.90
20833;DHT22;56075;51.264;7.150;2022-11-20T09:12:43;4.20;99.90
20833;DHT22;56075;51.264;7.150;2022-11-20T09:15:14;4.10;99.90
20833;DHT22;56075;51.264;7.150;2022-11-20T09:17:59;4.20;99.90
20833;DHT22;56075;51.264;7.150;2022-11-20T09:20:30;4.10;99.90
20833;DHT22;56075;51.264;7.150;2022-11-20T09:23:02;4.30;99.90
20833;DHT22;56075;51.264;7.150;2022-11-20T09:25:33;4.50;99.90
20833;DHT22;56075;51.264;7.150;2022-11-20T09:30:36;4.30;99.90
20833;DHT22;56075;51.264;7.150;2022-11-20T09:38:10;4.50;99.90
20833;DHT22;56075;51.264;7.150;2022-11-20T09:51:58;4.90;99.90
20833;DHT22;56075;51.264;7.150;2022-11-20T09:54:36;5.00;99.90
20833;DHT22;56075;51.264;7.150;2022-11-20T09:57:14;5.00;99.90
20833;DHT22;56075;51.264;7.150;2022-11-20T10:07:58;4.90;99.90
20833;DHT22;56075;51.264;7.150;2022-11-20T10:10:42;5.20;99.90
20833;DHT22;56075;51.264;7.150;2022-11-20T10:16:33;4.90;99.90
20833;DHT22;56075;51.264;7.150;2022-11-20T10:25:15;5.20;99.90
20833;DHT22;56075;51.264;7.150;2022-11-20T10:28:02;5.20;99.90
20833;DHT22;56075;51.264;7.150;2022-11-20T10:33:23;5.30;99.90
20833;DHT22;56075;51.264;7.150;2022-11-20T10:36:13;5.30;99.90
20833;DHT22;56075;51.264;7.150;2022-11-20T10:41:30;5.30;99.90
20833;DHT22;56075;51.264;7.150;2022-11-20T10:44:15;5.40;99.90
20833;DHT22;56075;51.264;7.150;2022-11-20T10:47:16;5.00;99.90
20833;DHT22;56075;51.264;7.150;2022-11-20T10:49:53;5.10;99.90
20833;DHT22;56075;51.264;7.150;2022-11-20T11:00:44;5.10;99.90
20833;DHT22;56075;51.264;7.150;2022-11-20T11:03:29;5.10;99.90
20833;DHT22;56075;51.264;7.150;2022-11-20T11:08:53;4.90;99.90
20833;DHT22;56075;51.264;7.150;2022-11-20T11:11:32;5.30;99.90
20833;DHT22;56075;51.264;7.150;2022-11-20T11:14:08;5.10;99.90
20833;DHT22;56075;51.264;7.150;2022-11-20T11:16:50;5.20;99.90
20833;DHT22;56075;51.264;7.150;2022-11-20T11:19:22;5.20;99.90
20833;DHT22;56075;51.264;7.150;2022-11-20T11:24:29;5.30;99.90
20833;DHT22;56075;51.264;7.150;2022-11-20T11:27:02;5.20;99.90
20833;DHT22;56075;51.264;7.150;2022-11-20T11:29:37;5.40;99.90
20833;DHT22;56075;51.264;7.150;2022-11-20T11:32:13;5.40;99.90
20833;DHT22;56075;51.264;7.150;2022-11-20T11:34:44;5.20;99.90
20833;DHT22;56075;51.264;7.150;2022-11-20T11:37:20;5.40;99.90
20833;DHT22;56075;51.264;7.150;2022-11-20T11:39:53;5.40;99.90
20833;DHT22;56075;51.264;7.150;2022-11-20T11:42:24;5.40;99.90
20833;DHT22;56075;51.264;7.150;2022-11-20T11:44:58;5.40;99.90
20833;DHT22;56075;51.264;7.150;2022-11-20T11:50:14;5.50;99.90
20833;DHT22;56075;51.264;7.150;2022-11-20T11:55:38;5.40;99.90
20833;DHT22;56075;51.264;7.150;2022-11-20T12:00:58;5.20;99.90
20833;DHT22;56075;51.264;7.150;2022-11-20T12:03:37;5.40;99.90
20833;DHT22;56075;51.264;7.150;2022-11-20T12:06:14;5.20;99.90
20833;DHT22;56075;51.264;7.150;2022-11-20T12:09:05;5.30;99.90
20833;DHT22;56075;51.264;7.150;2022-11-20T12:19:35;5.30;99.90
20833;DHT22;56075;51.264;7.150;2022-11-20T12:30:21;5.50;99.90
20833;DHT22;56075;51.264;7.150;2022-11-20T12:53:43;5.50;99.90
20833;DHT22;56075;51.264;7.150;2022-11-20T13:07:11;5.80;99.90
20833;DHT22;56075;51.264;7.150;2022-11-20T13:09:45;5.90;99.90
20833;DHT22;56075;51.264;7.150;2022-11-20T13:12:40;5.80;99.90
20833;DHT22;56075;51.264;7.150;2022-11-20T13:20:26;6.00;99.90
20833;DHT22;56075;51.264;7.150;2022-11-20T13:22:57;6.00;99.90
20833;DHT22;56075;51.264;7.150;2022-11-20T13:25:35;6.10;99.90
20833;DHT22;56075;51.264;7.150;2022-11-20T13:30:54;5.90;99.90
20833;DHT22;56075;51.264;7.150;2022-11-20T13:33:31;6.00;99.90
20833;DHT22;56075;51.264;7.150;2022-11-20T13:38:49;5.90;99.90
20833;DHT22;56075;51.264;7.150;2022-11-20T13:51:52;6.00;99.90
20833;DHT22;56075;51.264;7.150;2022-11-20T13:57:21;5.90;99.90
20833;DHT22;56075;51.264;7.150;2022-11-20T14:05:23;5.90;99.90
20833;DHT22;56075;51.264;7.150;2022-11-20T14:13:10;5.70;99.90
20833;DHT22;56075;51.264;7.150;2022-11-20T14:15:41;6.10;99.90
20833;DHT22;56075;51.264;7.150;2022-11-20T14:18:19;5.90;99.90
20833;DHT22;56075;51.264;7.150;2022-11-20T14:20:50;6.00;99.90
20833;DHT22;56075;51.264;7.150;2022-11-20T14:23:29;5.80;99.90
20833;DHT22;56075;51.264;7.150;2022-11-20T14:26:00;5.90;99.90
20833;DHT22;56075;51.264;7.150;2022-11-20T14:28:31;6.10;99.90
20833;DHT22;56075;51.264;7.150;2022-11-20T14:31:03;5.80;99.90
20833;DHT22;56075;51.264;7.150;2022-11-20T14:33:34;5.80;99.90
20833;DHT22;56075;51.264;7.150;2022-11-20T14:36:17;5.90;99.90
20833;DHT22;56075;51.264;7.150;2022-11-20T14:38:49;5.90;99.90
20833;DHT22;56075;51.264;7.150;2022-11-20T14:41:23;5.70;99.90
20833;DHT22;56075;51.264;7.150;2022-11-20T14:43:58;5.80;99.90
20833;DHT22;56075;51.264;7.150;2022-11-20T14:46:31;5.80;99.90
20833;DHT22;56075;51.264;7.150;2022-11-20T14:49:03;5.70;99.90
20833;DHT22;56075;51.264;7.150;2022-11-20T14:51:37;5.80;99.90
20833;DHT22;56075;51.264;7.150;2022-11-20T14:54:17;5.60;99.90
20833;DHT22;56075;51.264;7.150;2022-11-20T14:56:55;5.70;99.90
20833;DHT22;56075;51.264;7.150;2022-11-20T15:02:09;5.70;99.90
20833;DHT22;56075;51.264;7.150;2022-11-20T15:04:56;5.70;99.90
20833;DHT22;56075;51.264;7.150;2022-11-20T15:07:31;5.80;99.90
20833;DHT22;56075;51.264;7.150;2022-11-20T15:10:19;5.70;99.90
20833;DHT22;56075;51.264;7.150;2022-11-20T15:12:53;5.70;99.90
20833;DHT22;56075;51.264;7.150;2022-11-20T15:15:33;5.70;99.90
20833;DHT22;56075;51.264;7.150;2022-11-20T15:18:14;5.70;99.90
20833;DHT22;56075;51.264;7.150;2022-11-20T15:20:46;5.70;99.90
20833;DHT22;56075;51.264;7.150;2022-11-20T15:23:18;5.60;99.90
20833;DHT22;56075;51.264;7.150;2022-11-20T15:25:50;5.80;99.90
20833;DHT22;56075;51.264;7.150;2022-11-20T15:33:30;5.80;99.90
20833;DHT22;56075;51.264;7.150;2022-11-20T15:38:33;5.70;99.90
20833;DHT22;56075;51.264;7.150;2022-11-20T15:41:05;5.80;99.90
20833;DHT22;56075;51.264;7.150;2022-11-20T15:43:36;5.80;99.90
20833;DHT22;56075;51.264;7.150;2022-11-20T15:46:16;5.80;99.90
20833;DHT22;56075;51.264;7.150;2022-11-20T15:48:52;5.80;99.90
20833;DHT22;56075;51.264;7.150;2022-11-20T15:51:26;5.80;99.90
20833;DHT22;56075;51.264;7.150;2022-11-20T15:53:58;5.80;99.90
20833;DHT22;56075;51.264;7.150;2022-11-20T15:56:29;5.80;99.90
20833;DHT22;56075;51.264;7.150;2022-11-20T16:01:32;6.00;99.90
20833;DHT22;56075;51.264;7.150;2022-11-20T16:04:07;5.80;99.90
20833;DHT22;56075;51.264;7.150;2022-11-20T16:06:39;5.90;99.90
20833;DHT22;56075;51.264;7.150;2022-11-20T16:11:42;5.60;99.90
20833;DHT22;56075;51.264;7.150;2022-11-20T16:14:14;5.70;99.90
20833;DHT22;56075;51.264;7.150;2022-11-20T16:17:03;5.50;99.90
20833;DHT22;56075;51.264;7.150;2022-11-20T16:19:34;5.50;99.90
20833;DHT22;56075;51.264;7.150;2022-11-20T16:22:06;5.60;99.90
20833;DHT22;56075;51.264;7.150;2022-11-20T16:24:37;5.60;99.90
20833;DHT22;56075;51.264;7.150;2022-11-20T16:29:40;5.30;99.90
20833;DHT22;56075;51.264;7.150;2022-11-20T16:32:11;5.50;99.90
20833;DHT22;56075;51.264;7.150;2022-11-20T16:34:43;5.50;99.90
20833;DHT22;56075;51.264;7.150;2022-11-20T16:37:14;5.30;99.90
20833;DHT22;56075;51.264;7.150;2022-11-20T16:39:45;5.50;99.90
20833;DHT22;56075;51.264;7.150;2022-11-20T16:42:16;5.40;99.90
20833;DHT22;56075;51.264;7.150;2022-11-20T16:47:18;5.50;99.90
20833;DHT22;56075;51.264;7.150;2022-11-20T16:49:50;5.40;99.90
20833;DHT22;56075;51.264;7.150;2022-11-20T16:52:21;5.40;99.90
20833;DHT22;56075;51.264;7.150;2022-11-20T16:54:52;5.50;99.90
20833;DHT22;56075;51.264;7.150;2022-11-20T16:57:26;5.50;99.90
20833;DHT22;56075;51.264;7.150;2022-11-20T16:59:58;5.40;99.90
20833;DHT22;56075;51.264;7.150;2022-11-20T17:02:30;5.50;99.90
20833;DHT22;56075;51.264;7.150;2022-11-20T17:05:01;5.30;99.90
20833;DHT22;56075;51.264;7.150;2022-11-20T17:07:32;5.20;99.90
20833;DHT22;56075;51.264;7.150;2022-11-20T17:10:04;5.50;99.90
20833;DHT22;56075;51.264;7.150;2022-11-20T17:12:35;5.60;99.90
20833;DHT22;56075;51.264;7.150;2022-11-20T17:15:06;5.40;99.90
20833;DHT22;56075;51.264;7.150;2022-11-20T17:17:37;5.50;99.90
20833;DHT22;56075;51.264;7.150;2022-11-20T17:22:41;5.60;99.90
20833;DHT22;56075;51.264;7.150;2022-11-20T17:25:13;5.10;99.90
20833;DHT22;56075;51.264;7.150;2022-11-20T17:27:44;5.40;99.90
20833;DHT22;56075;51.264;7.150;2022-11-20T17:30:15;5.60;99.90
20833;DHT22;56075;51.264;7.150;2022-11-20T17:32:46;5.70;99.90
20833;DHT22;56075;51.264;7.150;2022-11-20T17:37:49;5.40;99.90
20833;DHT22;56075;51.264;7.150;2022-11-20T17:40:20;5.60;99.90
20833;DHT22;56075;51.264;7.150;2022-11-20T17:42:51;5.50;99.90
20833;DHT22;56075;51.264;7.150;2022-11-20T17:45:22;5.60;99.90
20833;DHT22;56075;51.264;7.150;2022-11-20T17:47:54;5.40;99.90
20833;DHT22;56075;51.264;7.150;2022-11-20T17:50:25;5.50;99.90
20833;DHT22;56075;51.264;7.150;2022-11-20T17:52:57;5.60;99.90
20833;DHT22;56075;51.264;7.150;2022-11-20T17:55:28;5.50;99.90
20833;DHT22;56075;51.264;7.150;2022-11-20T17:58:19;5.60;99.90
20833;DHT22;56075;51.264;7.150;2022-11-20T18:03:23;5.60;99.90
20833;DHT22;56075;51.264;7.150;2022-11-20T18:05:54;5.60;99.90
20833;DHT22;56075;51.264;7.150;2022-11-20T18:08:26;5.60;99.90
20833;DHT22;56075;51.264;7.150;2022-11-20T18:10:58;5.60;99.90
20833;DHT22;56075;51.264;7.150;2022-11-20T18:13:29;5.60;99.90
20833;DHT22;56075;51.264;7.150;2022-11-20T18:18:55;5.60;99.90
20833;DHT22;56075;51.264;7.150;2022-11-20T18:24:00;5.70;99.90
20833;DHT22;56075;51.264;7.150;2022-11-20T18:26:31;5.60;99.90
20833;DHT22;56075;51.264;7.150;2022-11-20T18:31:34;5.70;99.90
20833;DHT22;56075;51.264;7.150;2022-11-20T18:34:05;5.60;99.90
20833;DHT22;56075;51.264;7.150;2022-11-20T18:36:41;5.60;99.90
20833;DHT22;56075;51.264;7.150;2022-11-20T18:39:13;5.70;99.90
20833;DHT22;56075;51.264;7.150;2022-11-20T18:41:44;5.60;99.90
20833;DHT22;56075;51.264;7.150;2022-11-20T18:44:34;5.60;99.90
20833;DHT22;56075;51.264;7.150;2022-11-20T18:57:39;5.80;99.90
20833;DHT22;56075;51.264;7.150;2022-11-20T19:00:11;5.80;99.90
20833;DHT22;56075;51.264;7.150;2022-11-20T19:02:43;6.00;99.90
20833;DHT22;56075;51.264;7.150;2022-11-20T19:07:46;6.10;99.90
20833;DHT22;56075;51.264;7.150;2022-11-20T19:10:19;6.00;99.90
20833;DHT22;56075;51.264;7.150;2022-11-20T19:12:50;6.00;99.90
20833;DHT22;56075;51.264;7.150;2022-11-20T19:15:21;6.00;99.90
20833;DHT22;56075;51.264;7.150;2022-11-20T19:17:52;6.10;99.90
20833;DHT22;56075;51.264;7.150;2022-11-20T19:22:55;6.00;99.90
20833;DHT22;56075;51.264;7.150;2022-11-20T19:25:26;6.20;99.90
20833;DHT22;56075;51.264;7.150;2022-11-20T19:27:58;6.30;99.90
20833;DHT22;56075;51.264;7.150;2022-11-20T19:30:29;6.20;99.90
20833;DHT22;56075;51.264;7.150;2022-11-20T19:33:00;6.40;99.90
20833;DHT22;56075;51.264;7.150;2022-11-20T19:38:06;6.50;99.90
20833;DHT22;56075;51.264;7.150;2022-11-20T19:40:37;6.50;99.90
20833;DHT22;56075;51.264;7.150;2022-11-20T19:43:08;6.60;99.90
20833;DHT22;56075;51.264;7.150;2022-11-20T19:45:39;6.60;99.90
20833;DHT22;56075;51.264;7.150;2022-11-20T19:48:10;6.70;99.90
20833;DHT22;56075;51.264;7.150;2022-11-20T19:53:13;6.80;99.90
20833;DHT22;56075;51.264;7.150;2022-11-20T19:55:58;6.70;99.90
20833;DHT22;56075;51.264;7.150;2022-11-20T19:58:30;6.70;99.90
20833;DHT22;56075;51.264;7.150;2022-11-20T20:01:05;6.80;99.90
20833;DHT22;56075;51.264;7.150;2022-11-20T20:03:37;6.90;99.90
20833;DHT22;56075;51.264;7.150;2022-11-20T20:06:12;7.00;99.90
20833;DHT22;56075;51.264;7.150;2022-11-20T20:08:44;7.00;99.90
20833;DHT22;56075;51.264;7.150;2022-11-20T20:11:17;6.90;99.90
20833;DHT22;56075;51.264;7.150;2022-11-20T20:13:48;6.60;99.90
20833;DHT22;56075;51.264;7.150;2022-11-20T20:16:22;6.90;99.90
20833;DHT22;56075;51.264;7.150;2022-11-20T20:18:55;6.80;99.90
20833;DHT22;56075;51.264;7.150;2022-11-20T20:21:34;7.00;99.90
20833;DHT22;56075;51.264;7.150;2022-11-20T20:24:05;7.10;99.90
20833;DHT22;56075;51.264;7.150;2022-11-20T20:26:37;8.00;99.90
20833;DHT22;56075;51.264;7.150;2022-11-20T20:29:08;7.20;99.90
20833;DHT22;56075;51.264;7.150;2022-11-20T20:31:39;7.00;99.90
20833;DHT22;56075;51.264;7.150;2022-11-20T20:34:10;7.10;99.90
20833;DHT22;56075;51.264;7.150;2022-11-20T20:36:42;7.20;99.90
20833;DHT22;56075;51.264;7.150;2022-11-20T20:39:13;7.20;99.90
20833;DHT22;56075;51.264;7.150;2022-11-20T20:41:44;7.00;99.90
20833;DHT22;56075;51.264;7.150;2022-11-20T20:44:15;7.20;99.90
20833;DHT22;56075;51.264;7.150;2022-11-20T20:47:05;7.10;99.90
20833;DHT22;56075;51.264;7.150;2022-11-20T20:49:36;7.10;99.90
20833;DHT22;56075;51.264;7.150;2022-11-20T20:52:07;7.10;99.90
20833;DHT22;56075;51.264;7.150;2022-11-20T20:54:38;7.20;99.90
20833;DHT22;56075;51.264;7.150;2022-11-20T20:57:12;7.10;99.90
20833;DHT22;56075;51.264;7.150;2022-11-20T20:59:43;7.20;99.90
20833;DHT22;56075;51.264;7.150;2022-11-20T21:02:15;7.20;99.90
20833;DHT22;56075;51.264;7.150;2022-11-20T21:04:46;7.20;99.90
20833;DHT22;56075;51.264;7.150;2022-11-20T21:07:17;7.10;99.90
20833;DHT22;56075;51.264;7.150;2022-11-20T21:09:48;7.10;99.90
20833;DHT22;56075;51.264;7.150;2022-11-20T21:12:19;7.00;99.90
20833;DHT22;56075;51.264;7.150;2022-11-20T21:14:50;7.10;99.90
20833;DHT22;56075;51.264;7.150;2022-11-20T21:17:21;7.20;99.90
20833;DHT22;56075;51.264;7.150;2022-11-20T21:19:52;7.10;99.90
20833;DHT22;56075;51.264;7.150;2022-11-20T21:22:24;7.00;99.90
20833;DHT22;56075;51.264;7.150;2022-11-20T21:24:55;7.20;99.90
20833;DHT22;56075;51.264;7.150;2022-11-20T21:27:26;7.00;99.90
20833;DHT22;56075;51.264;7.150;2022-11-20T21:29:57;7.10;99.90
20833;DHT22;56075;51.264;7.150;2022-11-20T21:32:29;7.00;99.90
20833;DHT22;56075;51.264;7.150;2022-11-20T21:35:00;7.10;99.90
20833;DHT22;56075;51.264;7.150;2022-11-20T21:37:32;7.00;99.90
20833;DHT22;56075;51.264;7.150;2022-11-20T21:40:04;7.00;99.90
20833;DHT22;56075;51.264;7.150;2022-11-20T21:42:35;7.00;99.90
20833;DHT22;56075;51.264;7.150;2022-11-20T21:45:06;7.00;99.90
20833;DHT22;56075;51.264;7.150;2022-11-20T21:47:38;7.00;99.90
20833;DHT22;56075;51.264;7.150;2022-11-20T21:52:41;6.80;99.90
20833;DHT22;56075;51.264;7.150;2022-11-20T21:55:12;6.90;99.90
20833;DHT22;56075;51.264;7.150;2022-11-20T21:57:43;7.00;99.90
20833;DHT22;56075;51.264;7.150;2022-11-20T22:00:14;6.70;99.90
20833;DHT22;56075;51.264;7.150;2022-11-20T22:02:46;6.60;99.90
20833;DHT22;56075;51.264;7.150;2022-11-20T22:05:17;6.90;99.90
20833;DHT22;56075;51.264;7.150;2022-11-20T22:07:48;6.60;99.90
20833;DHT22;56075;51.264;7.150;2022-11-20T22:10:19;6.70;99.90
20833;DHT22;56075;51.264;7.150;2022-11-20T22:12:52;6.70;99.90
20833;DHT22;56075;51.264;7.150;2022-11-20T22:15:44;6.70;99.90
20833;DHT22;56075;51.264;7.150;2022-11-20T22:18:15;6.70;99.90
20833;DHT22;56075;51.264;7.150;2022-11-20T22:20:47;6.50;99.90
20833;DHT22;56075;51.264;7.150;2022-11-20T22:23:19;6.70;99.90
20833;DHT22;56075;51.264;7.150;2022-11-20T22:28:21;6.50;99.90
20833;DHT22;56075;51.264;7.150;2022-11-20T22:30:56;6.50;99.90
20833;DHT22;56075;51.264;7.150;2022-11-20T22:53:53;6.10;99.90
20833;DHT22;56075;51.264;7.150;2022-11-20T22:56:25;6.00;99.90
20833;DHT22;56075;51.264;7.150;2022-11-20T22:58:56;6.20;99.90
20833;DHT22;56075;51.264;7.150;2022-11-20T23:01:29;6.30;99.90
20833;DHT22;56075;51.264;7.150;2022-11-20T23:04:03;6.10;99.90
20833;DHT22;56075;51.264;7.150;2022-11-20T23:06:35;6.00;99.90
20833;DHT22;56075;51.264;7.150;2022-11-20T23:09:07;5.90;99.90
20833;DHT22;56075;51.264;7.150;2022-11-20T23:11:38;6.00;99.90
20833;DHT22;56075;51.264;7.150;2022-11-20T23:16:45;5.90;99.90
20833;DHT22;56075;51.264;7.150;2022-11-20T23:19:16;5.90;99.90
20833;DHT22;56075;51.264;7.150;2022-11-20T23:21:48;5.90;99.90
20833;DHT22;56075;51.264;7.150;2022-11-20T23:24:20;5.90;99.90
20833;DHT22;56075;51.264;7.150;2022-11-20T23:26:51;5.80;99.90
20833;DHT22;56075;51.264;7.150;2022-11-20T23:31:53;5.80;99.90
20833;DHT22;56075;51.264;7.150;2022-11-20T23:34:24;5.60;99.90
20833;DHT22;56075;51.264;7.150;2022-11-20T23:36:55;5.70;99.90
20833;DHT22;56075;51.264;7.150;2022-11-20T23:39:26;5.50;99.90
20833;DHT22;56075;51.264;7.150;2022-11-20T23:41:57;5.70;99.90
20833;DHT22;56075;51.264;7.150;2022-11-20T23:47:00;5.80;99.90
20833;DHT22;56075;51.264;7.150;2022-11-20T23:49:31;5.40;99.90
20833;DHT22;56075;51.264;7.150;2022-11-20T23:54:34;5.40;99.90
20833;DHT22;56075;51.264;7.150;2022-11-20T23:59:37;5.70;99.90
